Main page
METAR-TAF:

METAR-TAF

Airports :

Ouagadougou, Burkina Faso

Ouagadougou Airport

latitude: 12-21N, longitude: 001-31W, elevation: 316 m

Current weather observation

The report was made 22 minutes ago, at 05:00 UTC
Wind 4 kt from the East
Temperature 25°C
Humidity 22%
Pressure 1009 hPa
Visibility 10 km or more
no clouds below 1500 m and no cumulonimbus

METAR: DFFD 290500Z 10004KT CAVOK 25/02 Q1009 NOSIG

Time: 05:22 (05:22 UTC)

Forecast

The report was made 6 hours and 22 minutes ago, at 23:00 UTC
Forecast valid from 29 at 00 UTC to 30 at 06 UTC
Wind 8 kt from the East
Visibility: 8000 m
Temporary
from 29 at 06 UTC to 29 at 10 UTC
Visibility: 2500 m
widespread dust
Temporary
from 29 at 17 UTC to 29 at 20 UTC
Visibility: 4000 m
widespread dust

TAF: DFFD 282300Z 2900/3006 10008KT 8000 NSC TEMPO 2906/2910 2500 DU TEMPO 2917/2920 4000 DU

Weather observations and forecasts of more than 4000 airports (METAR and TAF reports).

The available stations are represented by yellow and red dots on the map.

Hover mouse over dot to see the name of the station.

Then click to see weather observations and forecasts.

To change the map : click on the green buttons with a black cross to zoom in, on the green button with a dash to zoom out, or on the green arrows for adjacent maps.


METAR-TAF: